Aviation Digital Data Service (ADDS)

Output produced by TAFs form (0052 UTC 30 March 2017)
found at http://www.aviationweather.gov/adds/tafs/
 
KDEN 300026Z 07009KT 10SM FEW080 FEW150 FEW220 12/00 A2996 RMK AO2 WSHFT 0009 T01170000
KDEN 300025Z 3000/3106 06012KT P6SM FEW060 SCT220 
     FM300200 15007KT P6SM FEW120 SCT200 
     FM301200 19007KT P6SM FEW120 BKN220 
     FM301800 14014KT P6SM FEW060 SCT120 BKN200 
     FM310100 15014KT P6SM SCT060 BKN100